sensor_id;sensor_type;location;lat;lon;timestamp;pressure;altitude;pressure_sealevel;temperature
24639;BMP180;1641;51.306;12.384;2022-12-24T00:02:16;98858.00;;;12.20
24639;BMP180;1641;51.306;12.384;2022-12-24T00:04:41;98838.00;;;12.10
24639;BMP180;1641;51.306;12.384;2022-12-24T00:07:07;98844.00;;;12.10
24639;BMP180;1641;51.306;12.384;2022-12-24T00:09:32;98870.00;;;12.20
24639;BMP180;1641;51.306;12.384;2022-12-24T00:11:57;98874.00;;;12.10
24639;BMP180;1641;51.306;12.384;2022-12-24T00:14:22;98865.00;;;12.30
24639;BMP180;1641;51.306;12.384;2022-12-24T00:16:47;98875.00;;;12.30
24639;BMP180;1641;51.306;12.384;2022-12-24T00:19:13;98887.00;;;12.30
24639;BMP180;1641;51.306;12.384;2022-12-24T00:21:38;98882.00;;;12.10
24639;BMP180;1641;51.306;12.384;2022-12-24T00:24:04;98902.00;;;12.00
24639;BMP180;1641;51.306;12.384;2022-12-24T00:26:31;98913.00;;;12.00
24639;BMP180;1641;51.306;12.384;2022-12-24T00:28:57;98901.00;;;12.40
24639;BMP180;1641;51.306;12.384;2022-12-24T00:31:22;98904.00;;;12.50
24639;BMP180;1641;51.306;12.384;2022-12-24T00:33:48;98896.00;;;12.20
24639;BMP180;1641;51.306;12.384;2022-12-24T00:36:13;98903.00;;;12.00
24639;BMP180;1641;51.306;12.384;2022-12-24T00:38:38;98896.00;;;11.70
24639;BMP180;1641;51.306;12.384;2022-12-24T00:41:06;98903.00;;;11.80
24639;BMP180;1641;51.306;12.384;2022-12-24T00:43:48;98898.00;;;12.00
24639;BMP180;1641;51.306;12.384;2022-12-24T00:46:14;98896.00;;;12.10
24639;BMP180;1641;51.306;12.384;2022-12-24T00:48:39;98913.00;;;12.10
24639;BMP180;1641;51.306;12.384;2022-12-24T00:51:04;98920.00;;;12.00
24639;BMP180;1641;51.306;12.384;2022-12-24T00:53:29;98915.00;;;12.20
24639;BMP180;1641;51.306;12.384;2022-12-24T00:55:54;98925.00;;;12.20
24639;BMP180;1641;51.306;12.384;2022-12-24T00:58:20;98901.00;;;12.10
24639;BMP180;1641;51.306;12.384;2022-12-24T01:00:45;98921.00;;;12.00
24639;BMP180;1641;51.306;12.384;2022-12-24T01:03:10;98912.00;;;12.00
24639;BMP180;1641;51.306;12.384;2022-12-24T01:05:35;98947.00;;;12.20
24639;BMP180;1641;51.306;12.384;2022-12-24T01:08:01;98946.00;;;12.00
24639;BMP180;1641;51.306;12.384;2022-12-24T01:10:26;98932.00;;;12.10
24639;BMP180;1641;51.306;12.384;2022-12-24T01:12:51;98942.00;;;12.00
24639;BMP180;1641;51.306;12.384;2022-12-24T01:15:16;98946.00;;;11.80
24639;BMP180;1641;51.306;12.384;2022-12-24T01:17:42;98950.00;;;11.80
24639;BMP180;1641;51.306;12.384;2022-12-24T01:20:10;98961.00;;;11.90
24639;BMP180;1641;51.306;12.384;2022-12-24T01:22:35;98969.00;;;11.90
24639;BMP180;1641;51.306;12.384;2022-12-24T01:25:00;98968.00;;;12.00
24639;BMP180;1641;51.306;12.384;2022-12-24T01:27:26;98965.00;;;12.30
24639;BMP180;1641;51.306;12.384;2022-12-24T01:29:51;98969.00;;;11.80
24639;BMP180;1641;51.306;12.384;2022-12-24T01:32:16;98973.00;;;11.80
24639;BMP180;1641;51.306;12.384;2022-12-24T01:34:41;98974.00;;;12.20
24639;BMP180;1641;51.306;12.384;2022-12-24T01:37:07;98973.00;;;12.30
24639;BMP180;1641;51.306;12.384;2022-12-24T01:39:32;98958.00;;;12.20
24639;BMP180;1641;51.306;12.384;2022-12-24T01:41:57;98978.00;;;12.50
24639;BMP180;1641;51.306;12.384;2022-12-24T01:44:43;98979.00;;;12.30
24639;BMP180;1641;51.306;12.384;2022-12-24T01:47:15;98991.00;;;12.40
24639;BMP180;1641;51.306;12.384;2022-12-24T01:49:49;98985.00;;;12.40
24639;BMP180;1641;51.306;12.384;2022-12-24T01:52:19;98996.00;;;12.30
24639;BMP180;1641;51.306;12.384;2022-12-24T01:54:52;98995.00;;;12.40
24639;BMP180;1641;51.306;12.384;2022-12-24T01:57:26;98985.00;;;12.40
24639;BMP180;1641;51.306;12.384;2022-12-24T01:59:57;99016.00;;;12.50
24639;BMP180;1641;51.306;12.384;2022-12-24T02:02:24;99006.00;;;12.60
24639;BMP180;1641;51.306;12.384;2022-12-24T02:04:56;99013.00;;;12.60
24639;BMP180;1641;51.306;12.384;2022-12-24T02:07:23;99005.00;;;12.70
24639;BMP180;1641;51.306;12.384;2022-12-24T02:09:52;99016.00;;;12.60
24639;BMP180;1641;51.306;12.384;2022-12-24T02:12:18;99015.00;;;12.50
24639;BMP180;1641;51.306;12.384;2022-12-24T02:14:44;99022.00;;;12.60
24639;BMP180;1641;51.306;12.384;2022-12-24T02:17:17;99029.00;;;12.50
24639;BMP180;1641;51.306;12.384;2022-12-24T02:20:17;99037.00;;;12.50
24639;BMP180;1641;51.306;12.384;2022-12-24T02:25:58;99037.00;;;12.00
24639;BMP180;1641;51.306;12.384;2022-12-24T02:28:52;99027.00;;;12.00
24639;BMP180;1641;51.306;12.384;2022-12-24T02:31:28;99038.00;;;12.20
24639;BMP180;1641;51.306;12.384;2022-12-24T02:34:03;99042.00;;;12.30
24639;BMP180;1641;51.306;12.384;2022-12-24T02:36:35;99050.00;;;12.00
24639;BMP180;1641;51.306;12.384;2022-12-24T02:39:11;99049.00;;;12.20
24639;BMP180;1641;51.306;12.384;2022-12-24T02:41:44;99030.00;;;12.10
24639;BMP180;1641;51.306;12.384;2022-12-24T02:44:31;99034.00;;;12.20
24639;BMP180;1641;51.306;12.384;2022-12-24T02:46:58;99041.00;;;11.90
24639;BMP180;1641;51.306;12.384;2022-12-24T02:49:24;99044.00;;;12.00
24639;BMP180;1641;51.306;12.384;2022-12-24T02:51:50;99054.00;;;12.10
24639;BMP180;1641;51.306;12.384;2022-12-24T02:54:15;99041.00;;;12.10
24639;BMP180;1641;51.306;12.384;2022-12-24T02:57:13;99036.00;;;11.90
24639;BMP180;1641;51.306;12.384;2022-12-24T02:59:55;99056.00;;;12.00
24639;BMP180;1641;51.306;12.384;2022-12-24T03:02:29;99057.00;;;12.20
24639;BMP180;1641;51.306;12.384;2022-12-24T03:05:10;99059.00;;;12.30
24639;BMP180;1641;51.306;12.384;2022-12-24T03:07:50;99055.00;;;12.30
24639;BMP180;1641;51.306;12.384;2022-12-24T03:10:30;99052.00;;;12.30
24639;BMP180;1641;51.306;12.384;2022-12-24T03:13:06;99050.00;;;12.10
24639;BMP180;1641;51.306;12.384;2022-12-24T03:15:33;99066.00;;;12.20
24639;BMP180;1641;51.306;12.384;2022-12-24T03:18:01;99079.00;;;12.00
24639;BMP180;1641;51.306;12.384;2022-12-24T03:20:34;99072.00;;;11.90
24639;BMP180;1641;51.306;12.384;2022-12-24T03:23:01;99059.00;;;12.00
24639;BMP180;1641;51.306;12.384;2022-12-24T03:25:26;99075.00;;;12.10
24639;BMP180;1641;51.306;12.384;2022-12-24T03:27:54;99087.00;;;12.20
24639;BMP180;1641;51.306;12.384;2022-12-24T03:30:20;99091.00;;;12.40
24639;BMP180;1641;51.306;12.384;2022-12-24T03:32:45;99094.00;;;12.10
24639;BMP180;1641;51.306;12.384;2022-12-24T03:35:10;99091.00;;;12.30
24639;BMP180;1641;51.306;12.384;2022-12-24T03:37:36;99097.00;;;12.40
24639;BMP180;1641;51.306;12.384;2022-12-24T03:40:03;99099.00;;;12.40
24639;BMP180;1641;51.306;12.384;2022-12-24T03:42:28;99095.00;;;12.30
24639;BMP180;1641;51.306;12.384;2022-12-24T03:44:54;99118.00;;;12.30
24639;BMP180;1641;51.306;12.384;2022-12-24T03:47:19;99115.00;;;12.40
24639;BMP180;1641;51.306;12.384;2022-12-24T03:49:44;99122.00;;;12.30
24639;BMP180;1641;51.306;12.384;2022-12-24T03:52:09;99104.00;;;12.50
24639;BMP180;1641;51.306;12.384;2022-12-24T03:54:34;99131.00;;;12.40
24639;BMP180;1641;51.306;12.384;2022-12-24T03:57:00;99135.00;;;11.90
24639;BMP180;1641;51.306;12.384;2022-12-24T03:59:25;99147.00;;;12.10
24639;BMP180;1641;51.306;12.384;2022-12-24T04:01:51;99151.00;;;12.20
24639;BMP180;1641;51.306;12.384;2022-12-24T04:04:16;99157.00;;;12.20
24639;BMP180;1641;51.306;12.384;2022-12-24T04:06:42;99156.00;;;12.40
24639;BMP180;1641;51.306;12.384;2022-12-24T04:09:07;99161.00;;;12.00
24639;BMP180;1641;51.306;12.384;2022-12-24T04:11:32;99164.00;;;12.30
24639;BMP180;1641;51.306;12.384;2022-12-24T04:13:57;99180.00;;;12.20
24639;BMP180;1641;51.306;12.384;2022-12-24T04:16:23;99187.00;;;12.00
24639;BMP180;1641;51.306;12.384;2022-12-24T04:18:48;99187.00;;;12.10
24639;BMP180;1641;51.306;12.384;2022-12-24T04:21:14;99192.00;;;12.00
24639;BMP180;1641;51.306;12.384;2022-12-24T04:23:40;99195.00;;;12.40
24639;BMP180;1641;51.306;12.384;2022-12-24T04:26:09;99198.00;;;12.50
24639;BMP180;1641;51.306;12.384;2022-12-24T04:28:36;99202.00;;;12.10
24639;BMP180;1641;51.306;12.384;2022-12-24T04:31:04;99206.00;;;12.30
24639;BMP180;1641;51.306;12.384;2022-12-24T04:33:30;99209.00;;;12.40
24639;BMP180;1641;51.306;12.384;2022-12-24T04:35:59;99206.00;;;12.40
24639;BMP180;1641;51.306;12.384;2022-12-24T04:38:25;99219.00;;;12.40
24639;BMP180;1641;51.306;12.384;2022-12-24T04:41:18;99229.00;;;12.50
24639;BMP180;1641;51.306;12.384;2022-12-24T04:43:44;99222.00;;;12.30
24639;BMP180;1641;51.306;12.384;2022-12-24T04:46:21;99232.00;;;12.20
24639;BMP180;1641;51.306;12.384;2022-12-24T04:48:48;99224.00;;;12.40
24639;BMP180;1641;51.306;12.384;2022-12-24T04:51:15;99225.00;;;12.30
24639;BMP180;1641;51.306;12.384;2022-12-24T04:53:42;99216.00;;;12.20
24639;BMP180;1641;51.306;12.384;2022-12-24T04:56:12;99224.00;;;12.10
24639;BMP180;1641;51.306;12.384;2022-12-24T04:58:37;99228.00;;;12.20
24639;BMP180;1641;51.306;12.384;2022-12-24T05:01:07;99230.00;;;12.10
24639;BMP180;1641;51.306;12.384;2022-12-24T05:03:33;99229.00;;;12.10
24639;BMP180;1641;51.306;12.384;2022-12-24T05:06:03;99248.00;;;12.00
24639;BMP180;1641;51.306;12.384;2022-12-24T05:08:28;99238.00;;;12.00
24639;BMP180;1641;51.306;12.384;2022-12-24T05:10:57;99240.00;;;12.10
24639;BMP180;1641;51.306;12.384;2022-12-24T05:13:24;99241.00;;;12.10
24639;BMP180;1641;51.306;12.384;2022-12-24T05:15:49;99250.00;;;12.30
24639;BMP180;1641;51.306;12.384;2022-12-24T05:18:14;99258.00;;;12.30
24639;BMP180;1641;51.306;12.384;2022-12-24T05:20:40;99258.00;;;11.80
24639;BMP180;1641;51.306;12.384;2022-12-24T05:23:05;99261.00;;;12.00
24639;BMP180;1641;51.306;12.384;2022-12-24T05:25:49;99273.00;;;12.00
24639;BMP180;1641;51.306;12.384;2022-12-24T05:28:33;99263.00;;;11.90
24639;BMP180;1641;51.306;12.384;2022-12-24T05:30:58;99278.00;;;12.20
24639;BMP180;1641;51.306;12.384;2022-12-24T05:33:24;99276.00;;;11.80
24639;BMP180;1641;51.306;12.384;2022-12-24T05:35:50;99284.00;;;12.10
24639;BMP180;1641;51.306;12.384;2022-12-24T05:38:16;99255.00;;;12.00
24639;BMP180;1641;51.306;12.384;2022-12-24T05:40:41;99262.00;;;11.90
24639;BMP180;1641;51.306;12.384;2022-12-24T05:43:06;99274.00;;;11.80
24639;BMP180;1641;51.306;12.384;2022-12-24T05:45:31;99312.00;;;11.80
24639;BMP180;1641;51.306;12.384;2022-12-24T05:47:56;99309.00;;;11.90
24639;BMP180;1641;51.306;12.384;2022-12-24T05:50:22;99326.00;;;11.70
24639;BMP180;1641;51.306;12.384;2022-12-24T05:52:47;99325.00;;;11.70
24639;BMP180;1641;51.306;12.384;2022-12-24T05:55:12;99337.00;;;11.70
24639;BMP180;1641;51.306;12.384;2022-12-24T05:57:38;99341.00;;;11.60
24639;BMP180;1641;51.306;12.384;2022-12-24T06:00:05;99344.00;;;11.10
24639;BMP180;1641;51.306;12.384;2022-12-24T06:02:31;99326.00;;;11.30
24639;BMP180;1641;51.306;12.384;2022-12-24T06:04:56;99337.00;;;11.50
24639;BMP180;1641;51.306;12.384;2022-12-24T06:07:21;99353.00;;;11.70
24639;BMP180;1641;51.306;12.384;2022-12-24T06:09:46;99355.00;;;11.50
24639;BMP180;1641;51.306;12.384;2022-12-24T06:12:11;99338.00;;;11.70
24639;BMP180;1641;51.306;12.384;2022-12-24T06:14:37;99349.00;;;11.50
24639;BMP180;1641;51.306;12.384;2022-12-24T06:17:02;99351.00;;;11.50
24639;BMP180;1641;51.306;12.384;2022-12-24T06:19:27;99370.00;;;11.60
24639;BMP180;1641;51.306;12.384;2022-12-24T06:21:52;99367.00;;;11.70
24639;BMP180;1641;51.306;12.384;2022-12-24T06:24:17;99361.00;;;11.70
24639;BMP180;1641;51.306;12.384;2022-12-24T06:26:43;99391.00;;;11.50
24639;BMP180;1641;51.306;12.384;2022-12-24T06:29:08;99392.00;;;11.40
24639;BMP180;1641;51.306;12.384;2022-12-24T06:31:34;99382.00;;;11.60
24639;BMP180;1641;51.306;12.384;2022-12-24T06:33:59;99361.00;;;11.50
24639;BMP180;1641;51.306;12.384;2022-12-24T06:36:24;99408.00;;;11.80
24639;BMP180;1641;51.306;12.384;2022-12-24T06:38:51;99402.00;;;11.60
24639;BMP180;1641;51.306;12.384;2022-12-24T06:41:17;99407.00;;;11.70
24639;BMP180;1641;51.306;12.384;2022-12-24T06:43:44;99403.00;;;11.60
24639;BMP180;1641;51.306;12.384;2022-12-24T06:46:10;99404.00;;;11.50
24639;BMP180;1641;51.306;12.384;2022-12-24T06:48:35;99437.00;;;11.50
24639;BMP180;1641;51.306;12.384;2022-12-24T06:51:01;99432.00;;;11.30
24639;BMP180;1641;51.306;12.384;2022-12-24T06:53:27;99443.00;;;11.50
24639;BMP180;1641;51.306;12.384;2022-12-24T06:56:04;99441.00;;;11.50
24639;BMP180;1641;51.306;12.384;2022-12-24T06:58:32;99440.00;;;11.50
24639;BMP180;1641;51.306;12.384;2022-12-24T07:01:00;99430.00;;;11.40
24639;BMP180;1641;51.306;12.384;2022-12-24T07:03:25;99441.00;;;11.40
24639;BMP180;1641;51.306;12.384;2022-12-24T07:05:50;99446.00;;;11.40
24639;BMP180;1641;51.306;12.384;2022-12-24T07:08:17;99435.00;;;11.00
24639;BMP180;1641;51.306;12.384;2022-12-24T07:10:42;99446.00;;;11.50
24639;BMP180;1641;51.306;12.384;2022-12-24T07:13:08;99443.00;;;11.50
24639;BMP180;1641;51.306;12.384;2022-12-24T07:15:33;99448.00;;;11.50
24639;BMP180;1641;51.306;12.384;2022-12-24T07:17:58;99452.00;;;11.60
24639;BMP180;1641;51.306;12.384;2022-12-24T07:20:23;99459.00;;;11.80
24639;BMP180;1641;51.306;12.384;2022-12-24T07:22:48;99468.00;;;11.50
24639;BMP180;1641;51.306;12.384;2022-12-24T07:25:20;99460.00;;;11.40
24639;BMP180;1641;51.306;12.384;2022-12-24T07:27:45;99466.00;;;11.30
24639;BMP180;1641;51.306;12.384;2022-12-24T07:30:10;99462.00;;;11.30
24639;BMP180;1641;51.306;12.384;2022-12-24T07:32:36;99467.00;;;11.10
24639;BMP180;1641;51.306;12.384;2022-12-24T07:35:01;99467.00;;;11.10
24639;BMP180;1641;51.306;12.384;2022-12-24T07:37:27;99474.00;;;11.20
24639;BMP180;1641;51.306;12.384;2022-12-24T07:39:52;99481.00;;;11.00
24639;BMP180;1641;51.306;12.384;2022-12-24T07:42:17;99473.00;;;10.90
24639;BMP180;1641;51.306;12.384;2022-12-24T07:44:42;99482.00;;;10.90
24639;BMP180;1641;51.306;12.384;2022-12-24T07:47:08;99500.00;;;11.10
24639;BMP180;1641;51.306;12.384;2022-12-24T07:49:36;99504.00;;;11.10
24639;BMP180;1641;51.306;12.384;2022-12-24T07:52:01;99502.00;;;10.70
24639;BMP180;1641;51.306;12.384;2022-12-24T07:54:27;99507.00;;;11.00
24639;BMP180;1641;51.306;12.384;2022-12-24T07:56:52;99484.00;;;10.90
24639;BMP180;1641;51.306;12.384;2022-12-24T07:59:19;99487.00;;;11.10
24639;BMP180;1641;51.306;12.384;2022-12-24T08:01:44;99516.00;;;11.20
24639;BMP180;1641;51.306;12.384;2022-12-24T08:04:12;99449.00;;;11.30
24639;BMP180;1641;51.306;12.384;2022-12-24T08:06:38;99528.00;;;11.30
24639;BMP180;1641;51.306;12.384;2022-12-24T08:09:04;99532.00;;;11.10
24639;BMP180;1641;51.306;12.384;2022-12-24T08:11:29;99484.00;;;10.90
24639;BMP180;1641;51.306;12.384;2022-12-24T08:13:55;99515.00;;;10.90
24639;BMP180;1641;51.306;12.384;2022-12-24T08:16:20;99520.00;;;11.10
24639;BMP180;1641;51.306;12.384;2022-12-24T08:18:46;99545.00;;;11.40
24639;BMP180;1641;51.306;12.384;2022-12-24T08:21:11;99551.00;;;12.40
24639;BMP180;1641;51.306;12.384;2022-12-24T08:23:36;99541.00;;;13.20
24639;BMP180;1641;51.306;12.384;2022-12-24T08:26:09;99571.00;;;13.50
24639;BMP180;1641;51.306;12.384;2022-12-24T08:28:35;99571.00;;;14.20
24639;BMP180;1641;51.306;12.384;2022-12-24T08:31:00;99567.00;;;15.00
24639;BMP180;1641;51.306;12.384;2022-12-24T08:33:26;99567.00;;;15.00
24639;BMP180;1641;51.306;12.384;2022-12-24T08:35:53;99572.00;;;15.00
24639;BMP180;1641;51.306;12.384;2022-12-24T08:38:22;99502.00;;;15.60
24639;BMP180;1641;51.306;12.384;2022-12-24T08:40:48;99583.00;;;15.30
24639;BMP180;1641;51.306;12.384;2022-12-24T08:43:15;99573.00;;;14.70
24639;BMP180;1641;51.306;12.384;2022-12-24T08:45:41;99595.00;;;13.80
24639;BMP180;1641;51.306;12.384;2022-12-24T08:48:07;99599.00;;;13.80
24639;BMP180;1641;51.306;12.384;2022-12-24T08:50:33;99607.00;;;13.00
24639;BMP180;1641;51.306;12.384;2022-12-24T08:52:58;99580.00;;;12.10
24639;BMP180;1641;51.306;12.384;2022-12-24T08:55:24;99604.00;;;12.00
24639;BMP180;1641;51.306;12.384;2022-12-24T08:57:49;99613.00;;;12.30
24639;BMP180;1641;51.306;12.384;2022-12-24T09:00:15;99607.00;;;12.90
24639;BMP180;1641;51.306;12.384;2022-12-24T09:02:43;99614.00;;;14.00
24639;BMP180;1641;51.306;12.384;2022-12-24T09:05:09;99627.00;;;14.60
24639;BMP180;1641;51.306;12.384;2022-12-24T09:07:35;99639.00;;;13.90
24639;BMP180;1641;51.306;12.384;2022-12-24T09:10:00;99636.00;;;13.70
24639;BMP180;1641;51.306;12.384;2022-12-24T09:12:25;99638.00;;;14.60
24639;BMP180;1641;51.306;12.384;2022-12-24T09:14:50;99609.00;;;14.40
24639;BMP180;1641;51.306;12.384;2022-12-24T09:17:16;99645.00;;;13.50
24639;BMP180;1641;51.306;12.384;2022-12-24T09:19:41;99649.00;;;13.00
24639;BMP180;1641;51.306;12.384;2022-12-24T09:22:07;99642.00;;;12.90
24639;BMP180;1641;51.306;12.384;2022-12-24T09:24:32;99630.00;;;12.70
24639;BMP180;1641;51.306;12.384;2022-12-24T09:26:57;99664.00;;;12.60
24639;BMP180;1641;51.306;12.384;2022-12-24T09:29:23;99645.00;;;12.40
24639;BMP180;1641;51.306;12.384;2022-12-24T09:31:48;99669.00;;;12.60
24639;BMP180;1641;51.306;12.384;2022-12-24T09:34:14;99652.00;;;12.60
24639;BMP180;1641;51.306;12.384;2022-12-24T09:36:39;99684.00;;;12.40
24639;BMP180;1641;51.306;12.384;2022-12-24T09:39:04;99690.00;;;12.40
24639;BMP180;1641;51.306;12.384;2022-12-24T09:41:46;99693.00;;;12.10
24639;BMP180;1641;51.306;12.384;2022-12-24T09:44:37;99692.00;;;12.20
24639;BMP180;1641;51.306;12.384;2022-12-24T09:47:20;99700.00;;;12.10
24639;BMP180;1641;51.306;12.384;2022-12-24T09:49:48;99706.00;;;12.20
24639;BMP180;1641;51.306;12.384;2022-12-24T09:52:26;99710.00;;;12.60
24639;BMP180;1641;51.306;12.384;2022-12-24T09:55:00;99687.00;;;12.70
24639;BMP180;1641;51.306;12.384;2022-12-24T09:57:30;99709.00;;;12.80
24639;BMP180;1641;51.306;12.384;2022-12-24T09:59:56;99704.00;;;12.70
24639;BMP180;1641;51.306;12.384;2022-12-24T10:02:21;99686.00;;;12.90
24639;BMP180;1641;51.306;12.384;2022-12-24T10:04:47;99713.00;;;12.80
24639;BMP180;1641;51.306;12.384;2022-12-24T10:07:30;99720.00;;;12.90
24639;BMP180;1641;51.306;12.384;2022-12-24T10:10:27;99710.00;;;13.00
24639;BMP180;1641;51.306;12.384;2022-12-24T10:15:38;99714.00;;;12.90
24639;BMP180;1641;51.306;12.384;2022-12-24T10:21:12;99711.00;;;12.80
24639;BMP180;1641;51.306;12.384;2022-12-24T10:23:47;99719.00;;;12.80
24639;BMP180;1641;51.306;12.384;2022-12-24T10:26:21;99713.00;;;12.90
24639;BMP180;1641;51.306;12.384;2022-12-24T10:29:00;99716.00;;;12.90
24639;BMP180;1641;51.306;12.384;2022-12-24T10:31:32;99718.00;;;12.90
24639;BMP180;1641;51.306;12.384;2022-12-24T10:34:03;99719.00;;;12.60
24639;BMP180;1641;51.306;12.384;2022-12-24T10:36:30;99719.00;;;12.40
24639;BMP180;1641;51.306;12.384;2022-12-24T10:38:55;99724.00;;;12.10
24639;BMP180;1641;51.306;12.384;2022-12-24T10:41:23;99724.00;;;12.50
24639;BMP180;1641;51.306;12.384;2022-12-24T10:43:49;99705.00;;;12.60
24639;BMP180;1641;51.306;12.384;2022-12-24T10:46:41;99712.00;;;12.70
24639;BMP180;1641;51.306;12.384;2022-12-24T10:49:12;99713.00;;;12.60
24639;BMP180;1641;51.306;12.384;2022-12-24T10:54:27;99733.00;;;12.60
24639;BMP180;1641;51.306;12.384;2022-12-24T10:56:58;99651.00;;;12.60
24639;BMP180;1641;51.306;12.384;2022-12-24T10:59:41;99733.00;;;12.60
24639;BMP180;1641;51.306;12.384;2022-12-24T11:02:29;99701.00;;;12.70
24639;BMP180;1641;51.306;12.384;2022-12-24T11:04:55;99733.00;;;12.90
24639;BMP180;1641;51.306;12.384;2022-12-24T11:07:22;99725.00;;;12.70
24639;BMP180;1641;51.306;12.384;2022-12-24T11:09:59;99752.00;;;12.50
24639;BMP180;1641;51.306;12.384;2022-12-24T11:12:28;99762.00;;;12.80
24639;BMP180;1641;51.306;12.384;2022-12-24T11:15:07;99729.00;;;13.00
24639;BMP180;1641;51.306;12.384;2022-12-24T11:17:39;99745.00;;;13.00
24639;BMP180;1641;51.306;12.384;2022-12-24T11:20:05;99728.00;;;13.00
24639;BMP180;1641;51.306;12.384;2022-12-24T11:22:32;99745.00;;;13.30
24639;BMP180;1641;51.306;12.384;2022-12-24T11:25:19;99750.00;;;13.00
24639;BMP180;1641;51.306;12.384;2022-12-24T11:27:46;99719.00;;;12.90
24639;BMP180;1641;51.306;12.384;2022-12-24T11:32:40;99763.00;;;13.10
24639;BMP180;1641;51.306;12.384;2022-12-24T11:37:41;99745.00;;;13.30
24639;BMP180;1641;51.306;12.384;2022-12-24T11:40:32;99731.00;;;13.70
24639;BMP180;1641;51.306;12.384;2022-12-24T11:42:59;99755.00;;;13.50
24639;BMP180;1641;51.306;12.384;2022-12-24T11:45:27;99743.00;;;13.50
24639;BMP180;1641;51.306;12.384;2022-12-24T11:47:54;99741.00;;;13.90
24639;BMP180;1641;51.306;12.384;2022-12-24T11:50:30;99744.00;;;13.70
24639;BMP180;1641;51.306;12.384;2022-12-24T11:53:08;99762.00;;;14.20
24639;BMP180;1641;51.306;12.384;2022-12-24T11:55:51;99751.00;;;13.80
24639;BMP180;1641;51.306;12.384;2022-12-24T11:58:24;99750.00;;;13.50
24639;BMP180;1641;51.306;12.384;2022-12-24T12:00:51;99746.00;;;13.50
24639;BMP180;1641;51.306;12.384;2022-12-24T12:03:28;99740.00;;;13.10
24639;BMP180;1641;51.306;12.384;2022-12-24T12:05:55;99747.00;;;13.30
24639;BMP180;1641;51.306;12.384;2022-12-24T12:08:23;99746.00;;;13.20
24639;BMP180;1641;51.306;12.384;2022-12-24T12:10:50;99747.00;;;13.50
24639;BMP180;1641;51.306;12.384;2022-12-24T12:13:27;99743.00;;;13.70
24639;BMP180;1641;51.306;12.384;2022-12-24T12:16:18;99756.00;;;13.00
24639;BMP180;1641;51.306;12.384;2022-12-24T12:18:51;99743.00;;;13.70
24639;BMP180;1641;51.306;12.384;2022-12-24T12:21:20;99761.00;;;13.70
24639;BMP180;1641;51.306;12.384;2022-12-24T12:23:52;99765.00;;;13.60
24639;BMP180;1641;51.306;12.384;2022-12-24T12:26:23;99773.00;;;13.80
24639;BMP180;1641;51.306;12.384;2022-12-24T12:29:25;99760.00;;;13.60
24639;BMP180;1641;51.306;12.384;2022-12-24T12:31:58;99759.00;;;14.00
24639;BMP180;1641;51.306;12.384;2022-12-24T12:34:42;99756.00;;;14.00
24639;BMP180;1641;51.306;12.384;2022-12-24T12:37:36;99772.00;;;14.00
24639;BMP180;1641;51.306;12.384;2022-12-24T12:40:12;99773.00;;;13.90
24639;BMP180;1641;51.306;12.384;2022-12-24T12:42:39;99767.00;;;13.70
24639;BMP180;1641;51.306;12.384;2022-12-24T12:45:53;99784.00;;;13.50
24639;BMP180;1641;51.306;12.384;2022-12-24T12:48:49;99751.00;;;13.70
24639;BMP180;1641;51.306;12.384;2022-12-24T12:51:47;99779.00;;;13.70
24639;BMP180;1641;51.306;12.384;2022-12-24T12:54:29;99786.00;;;13.90
24639;BMP180;1641;51.306;12.384;2022-12-24T12:57:01;99783.00;;;13.80
24639;BMP180;1641;51.306;12.384;2022-12-24T12:59:37;99789.00;;;13.70
24639;BMP180;1641;51.306;12.384;2022-12-24T13:02:35;99784.00;;;13.60
24639;BMP180;1641;51.306;12.384;2022-12-24T13:05:15;99788.00;;;13.40
24639;BMP180;1641;51.306;12.384;2022-12-24T13:08:07;99783.00;;;13.80
24639;BMP180;1641;51.306;12.384;2022-12-24T13:11:15;99711.00;;;13.90
24639;BMP180;1641;51.306;12.384;2022-12-24T13:13:47;99793.00;;;14.00
24639;BMP180;1641;51.306;12.384;2022-12-24T13:21:26;99800.00;;;13.50
24639;BMP180;1641;51.306;12.384;2022-12-24T13:24:13;99792.00;;;13.50
24639;BMP180;1641;51.306;12.384;2022-12-24T13:26:40;99821.00;;;13.10
24639;BMP180;1641;51.306;12.384;2022-12-24T13:34:55;99812.00;;;13.10
24639;BMP180;1641;51.306;12.384;2022-12-24T13:42:45;99833.00;;;13.30
24639;BMP180;1641;51.306;12.384;2022-12-24T13:50:35;99838.00;;;12.80
24639;BMP180;1641;51.306;12.384;2022-12-24T13:53:02;99827.00;;;12.60
24639;BMP180;1641;51.306;12.384;2022-12-24T13:55:29;99845.00;;;12.80
24639;BMP180;1641;51.306;12.384;2022-12-24T13:57:56;99859.00;;;13.20
24639;BMP180;1641;51.306;12.384;2022-12-24T14:00:38;99853.00;;;13.40
24639;BMP180;1641;51.306;12.384;2022-12-24T14:08:10;99853.00;;;12.90
24639;BMP180;1641;51.306;12.384;2022-12-24T14:10:56;99868.00;;;13.20
24639;BMP180;1641;51.306;12.384;2022-12-24T14:13:53;99872.00;;;13.00
24639;BMP180;1641;51.306;12.384;2022-12-24T14:16:21;99885.00;;;13.00
24639;BMP180;1641;51.306;12.384;2022-12-24T14:21:55;99874.00;;;12.60
24639;BMP180;1641;51.306;12.384;2022-12-24T14:24:25;99885.00;;;12.80
24639;BMP180;1641;51.306;12.384;2022-12-24T14:26:55;99893.00;;;13.10
24639;BMP180;1641;51.306;12.384;2022-12-24T14:29:32;99869.00;;;13.00
24639;BMP180;1641;51.306;12.384;2022-12-24T14:31:59;99897.00;;;12.60
24639;BMP180;1641;51.306;12.384;2022-12-24T14:34:31;99881.00;;;12.50
24639;BMP180;1641;51.306;12.384;2022-12-24T14:36:58;99909.00;;;12.30
24639;BMP180;1641;51.306;12.384;2022-12-24T14:39:30;99913.00;;;12.40
24639;BMP180;1641;51.306;12.384;2022-12-24T14:45:02;99902.00;;;12.70
24639;BMP180;1641;51.306;12.384;2022-12-24T14:47:58;99909.00;;;12.80
24639;BMP180;1641;51.306;12.384;2022-12-24T14:53:13;99900.00;;;12.50
24639;BMP180;1641;51.306;12.384;2022-12-24T14:55:45;99906.00;;;12.40
24639;BMP180;1641;51.306;12.384;2022-12-24T14:58:30;99881.00;;;12.60
24639;BMP180;1641;51.306;12.384;2022-12-24T15:00:59;99907.00;;;12.80
24639;BMP180;1641;51.306;12.384;2022-12-24T15:03:27;99899.00;;;12.40
24639;BMP180;1641;51.306;12.384;2022-12-24T15:05:56;99913.00;;;12.20
24639;BMP180;1641;51.306;12.384;2022-12-24T15:08:43;99918.00;;;12.00
24639;BMP180;1641;51.306;12.384;2022-12-24T15:11:14;99923.00;;;12.20
24639;BMP180;1641;51.306;12.384;2022-12-24T15:13:46;99925.00;;;12.20
24639;BMP180;1641;51.306;12.384;2022-12-24T15:16:26;99890.00;;;12.40
24639;BMP180;1641;51.306;12.384;2022-12-24T15:18:55;99921.00;;;12.10